Time;durP1;ratioP1;P1;durP2;ratioP2;P2;SDS_P1;SDS_P2;PMS_P1;PMS_P2;Temp;Humidity;BMP_temperature;BMP_pressure;BME280_temperature;BME280_humidity;BME280_pressure;Samples;Min_cycle;Max_cycle;Signal;HPM_P1;HPM_P2
2022/02/18 00:01:59;;;;;;;56.90;34.30;;;;;;;6.83;100.00;99166.59;4993531;28;20046;-67
2022/02/18 00:04:25;;;;;;;46.35;31.75;;;;;;;7.11;100.00;99209.63;4993780;28;20485;-69
2022/02/18 00:06:50;;;;;;;48.92;31.88;;;;;;;6.81;100.00;99176.72;5008778;28;20030;-68
2022/02/18 00:09:16;;;;;;;48.55;33.00;;;;;;;6.94;100.00;99207.53;4992286;28;20037;-68
2022/02/18 00:11:41;;;;;;;48.22;34.30;;;;;;;7.38;100.00;99192.03;4993773;28;20029;-68
2022/02/18 00:14:07;;;;;;;48.30;33.65;;;;;;;6.75;100.00;99179.41;4993751;28;20484;-68
2022/02/18 00:16:32;;;;;;;48.67;33.75;;;;;;;7.08;100.00;99208.00;5008404;28;20350;-68
2022/02/18 00:18:58;;;;;;;48.63;32.30;;;;;;;7.19;100.00;99213.59;4993678;28;20034;-68
2022/02/18 00:21:24;;;;;;;51.58;31.67;;;;;;;7.14;100.00;99207.00;4993505;28;20060;-68
2022/02/18 00:23:49;;;;;;;46.58;31.70;;;;;;;6.96;100.00;99171.28;4993209;28;20487;-68
2022/02/18 00:26:15;;;;;;;49.70;31.75;;;;;;;7.29;100.00;99193.97;4993647;28;20026;-68
2022/02/18 00:28:40;;;;;;;46.13;30.98;;;;;;;7.45;100.00;99193.50;4992108;28;20034;-67
2022/02/18 00:31:06;;;;;;;53.33;33.97;;;;;;;7.49;100.00;99189.16;4993213;28;20030;-68
2022/02/18 00:33:31;;;;;;;49.00;35.47;;;;;;;7.14;100.00;99171.63;4991988;28;20460;-67
2022/02/18 00:35:57;;;;;;;51.03;36.22;;;;;;;7.42;100.00;99180.97;4993372;28;20439;-68
2022/02/18 00:38:22;;;;;;;47.00;34.33;;;;;;;7.50;100.00;99206.84;4993043;28;20409;-67
2022/02/18 00:40:48;;;;;;;46.30;34.28;;;;;;;7.34;100.00;99218.25;5008253;28;20033;-67
2022/02/18 00:43:14;;;;;;;43.75;31.55;;;;;;;7.28;100.00;99180.50;4993148;28;20580;-69
2022/02/18 00:45:39;;;;;;;42.97;30.10;;;;;;;7.25;100.00;99190.69;4993004;28;20078;-68
2022/02/18 00:48:05;;;;;;;55.75;36.33;;;;;;;7.45;100.00;99251.66;4993222;28;20042;-67
2022/02/18 00:50:30;;;;;;;54.80;35.53;;;;;;;7.31;100.00;99194.78;4993056;28;20044;-67
2022/02/18 00:52:56;;;;;;;43.85;30.00;;;;;;;7.40;100.00;99190.28;4992742;28;20026;-68
2022/02/18 00:55:22;;;;;;;40.83;28.88;;;;;;;7.63;100.00;99227.53;4992889;28;20022;-68
2022/02/18 00:57:47;;;;;;;48.92;32.78;;;;;;;7.50;100.00;99239.72;4993083;28;20030;-68
2022/02/18 01:02:53;;;;;;;42.13;28.70;;;;;;;7.32;100.00;99187.13;4642766;23;10000475;-63
2022/02/18 01:05:18;;;;;;;55.70;35.35;;;;;;;7.49;100.00;99227.94;4992169;28;20034;-62
2022/02/18 01:07:44;;;;;;;49.35;31.42;;;;;;;7.56;100.00;99236.19;4991133;28;20480;-63
2022/02/18 01:10:10;;;;;;;48.78;30.92;;;;;;;7.60;100.00;99213.31;4990968;28;20496;-63
2022/02/18 01:12:36;;;;;;;41.88;28.48;;;;;;;7.55;100.00;99234.53;4992558;28;20508;-63
2022/02/18 01:15:04;;;;;;;38.58;27.10;;;;;;;7.73;100.00;99249.19;4990957;28;20022;-63
2022/02/18 01:17:30;;;;;;;35.85;26.02;;;;;;;7.67;100.00;99234.19;4992576;28;20034;-63
2022/02/18 01:19:55;;;;;;;38.95;26.73;;;;;;;7.37;100.00;99169.31;4991571;28;20097;-62
2022/02/18 01:22:20;;;;;;;38.30;26.45;;;;;;;7.83;100.00;99218.53;4992534;28;20031;-62
2022/02/18 01:24:46;;;;;;;40.42;26.50;;;;;;;7.74;100.00;99216.25;4992539;28;20045;-62
2022/02/18 01:27:11;;;;;;;37.95;26.92;;;;;;;7.67;100.00;99198.78;4992330;28;20027;-63
2022/02/18 01:29:39;;;;;;;38.45;26.70;;;;;;;7.43;100.00;99159.00;4991928;28;20031;-63
2022/02/18 01:32:13;;;;;;;39.08;26.13;;;;;;;7.61;100.00;99192.19;4990980;28;20030;-63
2022/02/18 01:34:40;;;;;;;39.20;26.45;;;;;;;7.89;100.00;99241.13;4990714;28;20030;-63
2022/02/18 01:37:06;;;;;;;36.45;26.23;;;;;;;7.57;100.00;99198.22;4992021;28;20030;-63
2022/02/18 01:39:32;;;;;;;35.13;25.85;;;;;;;7.79;100.00;99186.59;4992081;28;20038;-63
2022/02/18 01:41:57;;;;;;;39.55;26.48;;;;;;;8.07;100.00;99238.91;4992092;28;20512;-63
2022/02/18 01:44:38;;;;;;;38.55;25.30;;;;;;;8.09;100.00;99255.72;4992044;28;20109;-62
2022/02/18 01:47:05;;;;;;;42.85;26.05;;;;;;;7.76;100.00;99203.56;4990602;28;20056;-62
2022/02/18 01:49:31;;;;;;;37.15;26.33;;;;;;;8.00;100.00;99235.75;4990416;28;20061;-63
2022/02/18 01:51:57;;;;;;;39.58;27.38;;;;;;;7.68;100.00;99198.75;4991603;28;20468;-63
2022/02/18 01:54:22;;;;;;;40.53;26.92;;;;;;;7.96;100.00;99254.44;4992031;28;20030;-62
2022/02/18 01:56:48;;;;;;;37.65;26.58;;;;;;;7.71;100.00;99211.28;4991186;28;20492;-63
2022/02/18 01:59:14;;;;;;;41.58;29.48;;;;;;;8.06;100.00;99265.91;4991616;28;20095;-63
2022/02/18 02:01:39;;;;;;;41.05;28.63;;;;;;;8.17;100.00;99252.94;4991747;28;20045;-63
2022/02/18 02:04:07;;;;;;;45.13;29.08;;;;;;;8.13;100.00;99244.63;4991862;28;20046;-62
2022/02/18 02:06:33;;;;;;;45.15;29.90;;;;;;;8.29;100.00;99260.22;4991854;28;20034;-62
2022/02/18 02:08:59;;;;;;;80.35;47.08;;;;;;;7.70;100.00;99226.53;4991420;28;20456;-62
2022/02/18 02:11:24;;;;;;;68.32;40.47;;;;;;;8.03;100.00;99250.00;4991239;28;20412;-63
2022/02/18 02:13:50;;;;;;;50.33;33.65;;;;;;;7.86;100.00;99266.50;4990291;28;20049;-63
2022/02/18 02:16:16;;;;;;;44.20;31.70;;;;;;;7.82;100.00;99233.75;4991302;28;20473;-63
2022/02/18 02:18:44;;;;;;;50.28;33.35;;;;;;;8.09;100.00;99270.06;4991374;28;20026;-63
2022/02/18 02:21:13;;;;;;;51.78;34.30;;;;;;;8.36;100.00;99267.56;5006350;28;20069;-63
2022/02/18 02:23:39;;;;;;;48.10;32.28;;;;;;;8.27;100.00;99267.84;4991169;28;20035;-62
2022/02/18 02:26:12;;;;;;;45.22;30.42;;;;;;;7.97;100.00;99225.72;5006172;28;20048;-62
2022/02/18 02:28:38;;;;;;;41.85;28.10;;;;;;;7.90;100.00;99188.81;4991043;28;20030;-62
2022/02/18 02:31:03;;;;;;;40.88;28.73;;;;;;;8.11;100.00;99241.31;4991014;28;20113;-63
2022/02/18 02:33:29;;;;;;;36.53;25.50;;;;;;;8.22;100.00;99256.19;4989600;28;20427;-63
2022/02/18 02:35:54;;;;;;;32.78;22.73;;;;;;;8.12;100.00;99202.47;5006243;28;20031;-63
2022/02/18 02:38:20;;;;;;;28.98;18.58;;;;;;;9.21;100.00;99298.59;4991033;28;20113;-63
2022/02/18 02:40:45;;;;;;;27.17;10.75;;;;;;;10.44;100.00;99289.91;4990962;28;20034;-63
2022/02/18 02:43:11;;;;;;;16.27;7.78;;;;;;;10.86;100.00;99257.72;4991045;28;20041;-63
2022/02/18 02:45:36;;;;;;;14.05;7.03;;;;;;;10.98;100.00;99295.34;4991153;28;20026;-62
2022/02/18 02:48:02;;;;;;;9.90;5.80;;;;;;;11.10;100.00;99271.97;4991160;28;20109;-63
2022/02/18 02:50:27;;;;;;;24.45;5.30;;;;;;;11.89;100.00;99294.84;4990989;28;20535;-63
2022/02/18 02:52:53;;;;;;;13.88;3.97;;;;;;;11.90;100.00;99278.69;4989656;28;20121;-62
2022/02/18 02:55:19;;;;;;;9.35;4.10;;;;;;;12.08;100.00;99299.97;4991022;28;20026;-62
2022/02/18 02:57:44;;;;;;;15.65;4.32;;;;;;;11.98;100.00;99364.97;4989707;28;20089;-63
2022/02/18 03:00:11;;;;;;;13.35;4.55;;;;;;;12.22;100.00;99343.50;4990945;28;20122;-62
2022/02/18 03:02:37;;;;;;;9.32;4.53;;;;;;;12.01;100.00;99318.94;4991084;28;20053;-62
2022/02/18 03:05:03;;;;;;;17.40;4.72;;;;;;;11.66;100.00;99304.41;5005706;28;20376;-63
2022/02/18 03:07:29;;;;;;;12.48;4.60;;;;;;;12.15;100.00;99377.78;4990959;28;20124;-62
2022/02/18 03:09:54;;;;;;;9.40;4.80;;;;;;;12.01;100.00;99380.94;5005986;28;20585;-62
2022/02/18 03:12:20;;;;;;;10.35;4.72;;;;;;;11.91;100.00;99394.94;4990933;28;20500;-63
2022/02/18 03:14:45;;;;;;;6.22;4.82;;;;;;;11.98;100.00;99409.06;4991025;28;20026;-62
2022/02/18 03:17:10;;;;;;;13.05;4.60;;;;;;;12.08;100.00;99417.97;4990821;28;20496;-63
2022/02/18 03:19:36;;;;;;;8.60;4.78;;;;;;;11.62;100.00;99376.66;4989350;28;20031;-63
2022/02/18 03:22:02;;;;;;;10.45;4.15;;;;;;;11.86;100.00;99436.78;4989519;28;20077;-64
2022/02/18 03:24:27;;;;;;;13.45;4.25;;;;;;;11.67;100.00;99430.78;4990611;28;20034;-63
2022/02/18 03:26:53;;;;;;;6.35;3.20;;;;;;;11.64;100.00;99436.00;4989347;28;20089;-63
2022/02/18 03:29:18;;;;;;;7.50;3.53;;;;;;;11.67;100.00;99454.53;4990866;28;20484;-63
2022/02/18 03:31:44;;;;;;;4.50;3.10;;;;;;;11.25;100.00;99401.06;4989552;28;20033;-63
2022/02/18 03:34:09;;;;;;;12.57;2.95;;;;;;;11.50;100.00;99456.91;4990547;28;20023;-63
2022/02/18 03:36:35;;;;;;;5.00;2.45;;;;;;;11.51;100.00;99458.56;4990654;28;20026;-63
2022/02/18 03:39:00;;;;;;;5.60;2.60;;;;;;;11.31;100.00;99474.63;4990701;28;20443;-63
2022/02/18 03:41:30;;;;;;;4.90;2.45;;;;;;;11.22;100.00;99461.44;4990266;28;20041;-63
2022/02/18 03:43:59;;;;;;;4.40;2.58;;;;;;;11.30;100.00;99472.97;4992959;28;20031;-63
2022/02/18 03:46:24;;;;;;;3.10;2.03;;;;;;;11.01;100.00;99409.66;4994031;28;20436;-62
2022/02/18 03:48:49;;;;;;;4.45;1.98;;;;;;;11.15;100.00;99452.41;4994171;28;20034;-63
2022/02/18 03:51:15;;;;;;;4.30;1.92;;;;;;;11.07;100.00;99449.31;5009045;28;20031;-62
2022/02/18 03:53:40;;;;;;;12.88;2.00;;;;;;;11.12;100.00;99443.16;4994036;28;20038;-62
2022/02/18 03:56:06;;;;;;;9.88;1.25;;;;;;;11.50;100.00;99504.44;4994191;28;20113;-62
2022/02/18 03:58:31;;;;;;;14.25;1.40;;;;;;;10.87;100.00;99424.66;4993023;28;20023;-62
2022/02/18 04:00:57;;;;;;;4.72;1.23;;;;;;;11.30;100.00;99479.78;4992639;28;20034;-62
2022/02/18 04:03:22;;;;;;;6.72;1.00;;;;;;;11.41;100.00;99494.63;4993456;28;20501;-62
2022/02/18 04:05:48;;;;;;;5.38;0.73;;;;;;;10.78;100.00;99403.81;4994084;28;20033;-62
2022/02/18 04:08:13;;;;;;;2.55;0.80;;;;;;;11.24;100.00;99492.75;4993522;28;20034;-61
2022/02/18 04:10:39;;;;;;;5.93;0.70;;;;;;;10.92;100.00;99453.25;4992409;28;20026;-62
2022/02/18 04:13:04;;;;;;;1.45;0.70;;;;;;;11.22;100.00;99502.16;4992510;28;20119;-62
2022/02/18 04:15:30;;;;;;;1.48;0.80;;;;;;;10.87;100.00;99462.78;4993796;28;20045;-62
2022/02/18 04:17:56;;;;;;;1.88;0.82;;;;;;;10.85;100.00;99464.56;4993377;28;20036;-62
2022/02/18 04:20:22;;;;;;;6.85;0.80;;;;;;;11.07;100.00;99518.00;4993596;28;20034;-62
2022/02/18 04:22:47;;;;;;;7.05;0.95;;;;;;;10.97;100.00;99529.41;4993356;28;20038;-62
2022/02/18 04:25:13;;;;;;;2.45;0.60;;;;;;;10.69;100.00;99472.81;4993381;28;20092;-62
2022/02/18 04:27:39;;;;;;;2.88;0.52;;;;;;;10.88;100.00;99537.34;5008447;28;20037;-62
2022/02/18 04:30:05;;;;;;;3.67;1.25;;;;;;;10.73;100.00;99509.94;4992240;28;20042;-62
2022/02/18 04:32:31;;;;;;;1.77;0.85;;;;;;;10.03;100.00;99420.09;4993035;28;20543;-62
2022/02/18 04:34:56;;;;;;;3.35;1.00;;;;;;;10.50;100.00;99495.50;4991859;28;20034;-62
2022/02/18 04:37:22;;;;;;;2.28;0.95;;;;;;;10.42;100.00;99494.94;4991410;28;20027;-62
2022/02/18 04:39:48;;;;;;;2.30;0.50;;;;;;;10.67;100.00;99535.59;4993018;28;20034;-62
2022/02/18 04:42:13;;;;;;;2.35;0.70;;;;;;;10.36;100.00;99485.00;4992923;28;20064;-61
2022/02/18 04:44:39;;;;;;;3.08;0.60;;;;;;;10.15;100.00;99475.59;4991681;28;20034;-61
2022/02/18 04:47:04;;;;;;;3.05;1.10;;;;;;;10.38;100.00;99534.88;4991584;28;20121;-61
2022/02/18 04:49:30;;;;;;;2.45;1.50;;;;;;;10.59;100.00;99570.59;4992698;28;20026;-61
2022/02/18 04:51:55;;;;;;;3.65;1.27;;;;;;;10.56;100.00;99550.41;4991110;28;20062;-62
2022/02/18 04:54:24;;;;;;;2.40;0.88;;;;;;;10.29;100.00;99503.88;4991772;28;20476;-62
2022/02/18 04:56:50;;;;;;;2.80;0.70;;;;;;;10.50;100.00;99532.81;4991369;28;20034;-61
2022/02/18 04:59:16;;;;;;;2.90;0.90;;;;;;;10.47;100.00;99549.00;4992779;28;20482;-61
2022/02/18 05:01:43;;;;;;;5.72;2.40;;;;;;;10.51;100.00;99504.81;4992358;28;20030;-61
2022/02/18 05:04:08;;;;;;;6.47;3.78;;;;;;;10.60;100.00;99544.31;4992698;28;20053;-62
2022/02/18 05:06:34;;;;;;;5.15;2.88;;;;;;;10.54;100.00;99547.06;4992223;28;20784;-61
2022/02/18 05:08:59;;;;;;;4.25;2.55;;;;;;;10.45;100.00;99517.72;4992433;28;20027;-61
2022/02/18 05:11:24;;;;;;;8.68;6.75;;;;;;;10.36;100.00;99465.50;4992293;28;20467;-61
2022/02/18 05:13:50;;;;;;;4.60;2.72;;;;;;;10.91;100.00;99548.25;4991107;28;20480;-62
2022/02/18 05:16:15;;;;;;;6.07;3.38;;;;;;;10.73;100.00;99540.44;4992418;28;20038;-62
2022/02/18 05:18:41;;;;;;;5.15;2.92;;;;;;;10.60;100.00;99514.63;4992427;28;20535;-62
2022/02/18 05:21:06;;;;;;;4.47;3.10;;;;;;;10.59;96.47;99466.41;4992251;28;20037;-62
2022/02/18 05:23:32;;;;;;;11.40;7.32;;;;;;;10.70;100.00;99475.28;4992304;28;20074;-62
2022/02/18 05:25:58;;;;;;;10.43;6.45;;;;;;;11.07;91.08;99525.63;4990911;28;20145;-61
2022/02/18 05:28:23;;;;;;;10.23;6.13;;;;;;;11.04;88.16;99534.19;4990904;28;20030;-63
2022/02/18 05:30:48;;;;;;;15.38;8.38;;;;;;;10.51;85.73;99435.34;4992344;28;20033;-62
2022/02/18 05:33:14;;;;;;;19.55;13.00;;;;;;;10.70;85.13;99475.28;4991806;28;20136;-62
2022/02/18 05:35:40;;;;;;;10.23;7.05;;;;;;;10.10;93.40;99450.34;4990682;28;20022;-62
2022/02/18 05:38:06;;;;;;;6.43;4.30;;;;;;;10.93;78.19;99495.63;4990393;28;20062;-63
2022/02/18 05:40:31;;;;;;;26.92;14.13;;;;;;;11.08;84.59;99542.53;4991786;28;20065;-63
2022/02/18 05:42:57;;;;;;;4.03;1.50;;;;;;;11.63;66.68;99575.19;4990641;28;20133;-62
2022/02/18 05:45:23;;;;;;;16.95;9.10;;;;;;;11.49;64.85;99568.97;5006891;28;20412;-62
2022/02/18 05:47:48;;;;;;;11.80;6.72;;;;;;;11.13;65.70;99520.31;4991744;28;20493;-62
2022/02/18 05:50:14;;;;;;;5.28;2.13;;;;;;;11.44;67.41;99578.50;4991625;28;20034;-62
2022/02/18 05:52:41;;;;;;;6.55;3.55;;;;;;;11.11;70.20;99557.69;5006445;28;20037;-62
2022/02/18 05:55:07;;;;;;;17.25;4.25;;;;;;;11.37;70.59;99579.63;4990737;28;20121;-63
2022/02/18 05:57:34;;;;;;;6.72;1.67;;;;;;;11.22;72.27;99574.22;4991093;28;20026;-62
2022/02/18 05:59:59;;;;;;;6.07;2.80;;;;;;;10.72;76.34;99539.63;4990783;28;20026;-63
2022/02/18 06:02:25;;;;;;;4.53;1.50;;;;;;;11.16;75.15;99582.09;4990882;28;20057;-62
2022/02/18 06:04:51;;;;;;;6.22;1.30;;;;;;;11.06;78.69;99601.09;4990448;28;20101;-62
2022/02/18 06:07:17;;;;;;;3.65;2.10;;;;;;;10.87;75.19;99528.91;5005385;28;20022;-62
2022/02/18 06:09:43;;;;;;;4.13;2.00;;;;;;;10.81;76.71;99556.25;4990667;28;20109;-64
2022/02/18 06:12:09;;;;;;;5.30;2.00;;;;;;;10.98;77.54;99598.00;4991048;28;20054;-63
2022/02/18 06:14:34;;;;;;;4.22;1.75;;;;;;;11.12;75.76;99598.34;4989583;28;20092;-62
2022/02/18 06:17:00;;;;;;;4.90;2.45;;;;;;;10.89;72.10;99564.44;4990719;28;20632;-62
2022/02/18 06:19:25;;;;;;;8.07;3.45;;;;;;;11.09;71.36;99618.78;4991198;28;20041;-64
2022/02/18 06:21:50;;;;;;;6.20;2.20;;;;;;;11.09;66.23;99590.00;4991405;28;20026;-62
2022/02/18 06:24:16;;;;;;;5.63;1.83;;;;;;;11.27;64.87;99632.56;4991049;28;20022;-62
2022/02/18 06:26:41;;;;;;;4.57;2.08;;;;;;;10.88;63.63;99572.94;4991768;28;20053;-61
2022/02/18 06:29:07;;;;;;;3.88;1.83;;;;;;;11.37;62.82;99661.88;4990020;28;20022;-62
2022/02/18 06:31:33;;;;;;;4.18;2.53;;;;;;;10.93;63.30;99602.44;4991022;28;20042;-62
2022/02/18 06:33:59;;;;;;;6.40;3.88;;;;;;;11.39;58.76;99642.28;4991286;28;20034;-62
2022/02/18 06:36:24;;;;;;;7.10;3.00;;;;;;;11.29;54.43;99607.88;4991015;28;20028;-62
2022/02/18 06:38:49;;;;;;;8.38;3.50;;;;;;;11.69;52.58;99676.00;4991240;28;20041;-62
2022/02/18 06:41:15;;;;;;;6.72;3.05;;;;;;;11.48;52.21;99649.59;4991257;28;20044;-63
2022/02/18 06:43:41;;;;;;;4.78;2.28;;;;;;;11.68;51.40;99653.97;5006189;28;20113;-61
2022/02/18 06:46:07;;;;;;;3.90;1.73;;;;;;;11.42;48.30;99606.56;4990914;28;20031;-61
2022/02/18 06:48:32;;;;;;;5.95;2.50;;;;;;;11.27;50.53;99640.19;4990967;28;20035;-62
2022/02/18 06:50:58;;;;;;;5.32;1.50;;;;;;;11.68;46.74;99684.53;4990878;28;20034;-62
2022/02/18 06:53:24;;;;;;;1.38;0.70;;;;;;;11.64;42.56;99599.78;4990991;28;20053;-61
2022/02/18 06:55:49;;;;;;;3.33;1.40;;;;;;;11.64;42.75;99604.03;4990984;28;20030;-61
2022/02/18 06:58:15;;;;;;;5.70;2.60;;;;;;;11.25;43.37;99604.63;4991073;28;20172;-61
2022/02/18 07:00:40;;;;;;;5.28;2.60;;;;;;;11.62;44.35;99670.28;4990732;28;20035;-63
2022/02/18 07:03:09;;;;;;;7.43;3.22;;;;;;;11.09;45.87;99630.69;4991086;28;20058;-63
2022/02/18 07:05:35;;;;;;;7.22;2.50;;;;;;;11.13;45.74;99633.06;5005930;28;20022;-62
2022/02/18 07:08:00;;;;;;;6.15;1.75;;;;;;;11.07;44.52;99596.84;4990997;28;20039;-62
2022/02/18 07:10:26;;;;;;;4.95;1.95;;;;;;;12.25;42.02;99686.56;4991039;28;20385;-62
2022/02/18 07:12:52;;;;;;;3.97;1.40;;;;;;;12.66;40.24;99638.09;4990815;28;20037;-61
2022/02/18 07:15:17;;;;;;;2.83;1.45;;;;;;;13.01;40.46;99688.44;4990999;28;20026;-64
2022/02/18 07:17:43;;;;;;;11.68;4.65;;;;;;;12.92;40.21;99640.38;4991382;28;20121;-61
2022/02/18 07:20:10;;;;;;;4.88;1.73;;;;;;;12.96;38.51;99652.09;4994344;28;20118;-64
2022/02/18 07:22:37;;;;;;;6.93;1.75;;;;;;;13.48;38.67;99703.47;4994727;28;20039;-61
2022/02/18 07:25:05;;;;;;;4.72;2.00;;;;;;;12.99;38.57;99641.75;4994853;28;20038;-61
2022/02/18 07:27:30;;;;;;;2.60;1.48;;;;;;;13.14;38.06;99701.56;4994347;28;20034;-61
2022/02/18 07:29:56;;;;;;;7.15;1.83;;;;;;;13.38;38.16;99662.22;4994448;28;20033;-63
2022/02/18 07:32:24;;;;;;;5.63;3.28;;;;;;;13.44;39.25;99674.69;5009295;28;20031;-64
2022/02/18 07:34:50;;;;;;;5.57;3.10;;;;;;;13.31;38.97;99653.16;5009432;28;20026;-64
2022/02/18 07:37:16;;;;;;;6.05;3.40;;;;;;;13.42;38.75;99712.25;4994658;28;20117;-63
2022/02/18 07:39:42;;;;;;;5.82;2.50;;;;;;;13.42;38.90;99726.72;4994291;28;20149;-63
2022/02/18 07:42:09;;;;;;;9.95;2.97;;;;;;;13.61;38.73;99735.22;4994083;28;20034;-63
2022/02/18 07:44:34;;;;;;;7.75;3.13;;;;;;;13.11;38.84;99699.16;5009169;28;20034;-63
2022/02/18 07:47:00;;;;;;;9.15;3.63;;;;;;;13.14;39.84;99749.22;4994235;28;20037;-64
2022/02/18 07:49:25;;;;;;;6.50;2.95;;;;;;;13.00;40.14;99726.81;4993784;28;20035;-63
2022/02/18 07:51:51;;;;;;;11.32;3.08;;;;;;;12.96;39.97;99676.78;5009243;28;20412;-63
2022/02/18 07:54:16;;;;;;;9.48;6.13;;;;;;;13.32;40.58;99690.56;4994192;28;20059;-64
2022/02/18 07:56:43;;;;;;;10.48;4.80;;;;;;;13.21;39.93;99735.31;4993731;28;20026;-63
2022/02/18 07:59:09;;;;;;;3.92;1.30;;;;;;;12.69;39.45;99655.00;4993956;28;20057;-63
2022/02/18 08:01:34;;;;;;;7.28;2.20;;;;;;;12.38;41.19;99669.91;4993338;28;20031;-64
2022/02/18 08:04:00;;;;;;;9.10;1.88;;;;;;;12.78;40.18;99675.84;4992512;28;20467;-64
2022/02/18 08:06:25;;;;;;;10.90;2.60;;;;;;;12.99;41.42;99750.69;4993902;28;20030;-62
2022/02/18 08:08:52;;;;;;;9.57;1.80;;;;;;;13.11;41.66;99754.47;4993927;28;20456;-64
2022/02/18 08:11:19;;;;;;;6.28;2.38;;;;;;;12.80;42.05;99701.28;4992413;28;20068;-63
2022/02/18 08:13:44;;;;;;;7.32;1.42;;;;;;;12.72;42.35;99713.53;4992321;28;20030;-63
2022/02/18 08:16:09;;;;;;;6.20;1.45;;;;;;;13.02;41.38;99730.13;4993490;28;20126;-63
2022/02/18 08:18:37;;;;;;;11.55;2.33;;;;;;;12.67;42.30;99680.56;5008743;28;20035;-63
2022/02/18 08:21:03;;;;;;;5.47;1.85;;;;;;;13.08;42.04;99735.00;4993604;28;20050;-63
2022/02/18 08:23:28;;;;;;;7.50;2.42;;;;;;;13.19;41.06;99681.78;4993544;28;20043;-63
2022/02/18 08:25:54;;;;;;;4.43;1.55;;;;;;;13.32;42.03;99721.19;4993220;28;20543;-64
2022/02/18 08:28:19;;;;;;;4.05;1.20;;;;;;;13.43;41.84;99757.31;4993450;28;20117;-63
2022/02/18 08:30:46;;;;;;;5.50;2.03;;;;;;;13.05;41.41;99691.75;4993134;28;20562;-63
2022/02/18 08:33:12;;;;;;;5.43;1.33;;;;;;;13.36;41.36;99730.38;4993245;28;20085;-63
2022/02/18 08:35:40;;;;;;;8.85;2.45;;;;;;;13.52;41.21;99753.53;4993218;28;20026;-63
2022/02/18 08:38:06;;;;;;;10.23;3.78;;;;;;;13.20;40.02;99726.84;4993139;28;20112;-63
2022/02/18 08:40:33;;;;;;;4.70;1.00;;;;;;;13.19;41.20;99748.16;4993458;28;20034;-62
2022/02/18 08:43:02;;;;;;;3.35;1.05;;;;;;;13.22;41.49;99776.09;4993025;28;20114;-63
2022/02/18 08:45:29;;;;;;;5.47;2.33;;;;;;;13.24;41.12;99769.19;4992711;28;20125;-63
2022/02/18 08:47:55;;;;;;;13.23;9.18;;;;;;;12.71;41.25;99707.63;4993159;28;20026;-63
2022/02/18 08:50:21;;;;;;;14.10;6.60;;;;;;;13.41;41.44;99779.50;4993177;28;20572;-63
2022/02/18 08:52:47;;;;;;;8.63;4.43;;;;;;;13.08;41.96;99737.56;4984950;28;20110;-63
2022/02/18 08:55:14;;;;;;;12.95;5.07;;;;;;;13.27;41.91;99718.00;4991282;28;20060;-63
2022/02/18 08:57:43;;;;;;;13.57;7.30;;;;;;;12.79;41.98;99681.78;4991787;28;20030;-63
2022/02/18 09:00:09;;;;;;;16.33;6.57;;;;;;;13.22;41.49;99740.34;4992454;28;20455;-63
2022/02/18 09:02:35;;;;;;;19.70;4.65;;;;;;;12.95;40.91;99739.75;4992583;28;20500;-63
2022/02/18 09:05:04;;;;;;;14.18;4.13;;;;;;;13.37;41.50;99780.53;4992892;28;20030;-63
2022/02/18 09:07:30;;;;;;;28.52;15.85;;;;;;;13.52;41.35;99777.34;4992437;28;20041;-63
2022/02/18 09:09:58;;;;;;;20.83;11.82;;;;;;;13.00;42.04;99711.50;4991308;28;20027;-64
2022/02/18 09:12:24;;;;;;;6.20;1.70;;;;;;;13.23;42.68;99769.28;4992605;28;20057;-64
2022/02/18 09:14:50;;;;;;;13.38;5.40;;;;;;;13.15;41.45;99704.94;4991079;28;20034;-63
2022/02/18 09:17:16;;;;;;;19.48;3.50;;;;;;;13.41;41.80;99776.97;4992690;28;20502;-62
2022/02/18 09:19:42;;;;;;;10.43;2.83;;;;;;;13.29;42.10;99700.88;4992912;28;20030;-63
2022/02/18 09:22:07;;;;;;;12.95;2.55;;;;;;;12.97;40.41;99696.31;4992012;28;20073;-63
2022/02/18 09:24:33;;;;;;;9.55;2.83;;;;;;;13.53;42.26;99766.22;4992335;28;20390;-63
2022/02/18 09:26:58;;;;;;;5.30;2.42;;;;;;;13.36;42.01;99704.84;4992292;28;20062;-63
2022/02/18 09:29:26;;;;;;;7.88;3.15;;;;;;;13.46;42.58;99721.44;4992022;28;20030;-63
2022/02/18 09:31:53;;;;;;;9.18;3.80;;;;;;;14.02;42.24;99711.22;4992549;28;20520;-62
2022/02/18 09:34:19;;;;;;;19.95;2.65;;;;;;;13.78;40.95;99783.88;4991066;28;20485;-63
2022/02/18 09:36:44;;;;;;;9.07;2.50;;;;;;;13.63;40.07;99749.59;4991937;28;20030;-63
2022/02/18 09:39:09;;;;;;;7.75;2.63;;;;;;;13.76;41.51;99794.16;4992154;28;20030;-63
2022/02/18 09:41:35;;;;;;;6.65;3.03;;;;;;;14.06;41.10;99809.88;4991338;28;20027;-62
2022/02/18 09:44:02;;;;;;;10.57;4.38;;;;;;;14.08;41.16;99809.78;4990347;28;20571;-63
2022/02/18 09:46:29;;;;;;;8.27;1.92;;;;;;;13.50;41.46;99757.88;4992172;28;20030;-62
2022/02/18 09:48:55;;;;;;;11.77;2.30;;;;;;;13.46;40.68;99802.31;4991858;28;20041;-63
2022/02/18 09:51:20;;;;;;;7.88;2.95;;;;;;;13.68;41.10;99757.91;4990676;28;20383;-62
2022/02/18 09:53:48;;;;;;;6.50;1.80;;;;;;;14.06;40.01;99819.25;4991727;28;20057;-62
2022/02/18 09:56:16;;;;;;;5.28;1.30;;;;;;;13.69;40.58;99823.44;4991607;28;20030;-63
2022/02/18 09:58:42;;;;;;;4.70;1.98;;;;;;;13.84;41.35;99789.53;4991639;28;20073;-63
2022/02/18 10:01:07;;;;;;;4.82;1.80;;;;;;;13.88;40.68;99811.50;4991832;28;20030;-63
2022/02/18 10:03:33;;;;;;;5.57;2.60;;;;;;;14.22;40.71;99779.31;4990476;28;20084;-63
2022/02/18 10:05:59;;;;;;;5.07;2.33;;;;;;;15.03;40.44;99821.50;4990624;28;20540;-64
2022/02/18 10:08:26;;;;;;;4.22;1.30;;;;;;;14.84;39.70;99830.94;4989197;28;20046;-62
2022/02/18 10:11:01;;;;;;;10.93;6.18;;;;;;;14.56;40.37;99844.22;4990296;28;20062;-62
2022/02/18 10:13:34;;;;;;;11.25;5.32;;;;;;;14.55;40.98;99832.34;4989934;28;20030;-62
2022/02/18 10:16:03;;;;;;;14.77;8.13;;;;;;;14.95;40.63;99840.69;4990383;28;20049;-62
2022/02/18 10:18:44;;;;;;;22.52;12.80;;;;;;;14.55;39.57;99836.63;4990756;28;20081;-62
2022/02/18 10:21:15;;;;;;;10.48;6.07;;;;;;;15.02;39.00;99824.94;4991432;28;20050;-62
2022/02/18 10:23:40;;;;;;;11.10;4.18;;;;;;;14.86;38.84;99824.03;4991784;28;20041;-62
2022/02/18 10:26:06;;;;;;;6.75;2.72;;;;;;;14.90;38.74;99834.94;4991600;28;20042;-61
2022/02/18 10:28:31;;;;;;;9.13;5.35;;;;;;;14.86;39.06;99818.91;4990831;28;20026;-63
2022/02/18 10:31:01;;;;;;;4.28;1.88;;;;;;;14.56;38.54;99772.56;4991136;28;20038;-62
2022/02/18 10:33:27;;;;;;;4.30;1.48;;;;;;;15.25;38.52;99822.09;4989478;28;20480;-62
2022/02/18 10:36:03;;;;;;;3.63;1.35;;;;;;;15.06;39.61;99823.06;4989170;28;20117;-62
2022/02/18 10:38:37;;;;;;;2.55;1.20;;;;;;;15.14;37.99;99767.19;4991288;28;20031;-62
2022/02/18 10:41:19;;;;;;;4.10;1.25;;;;;;;15.84;37.86;99816.53;4990955;28;20030;-63
2022/02/18 10:43:45;;;;;;;3.08;1.33;;;;;;;15.41;37.69;99768.38;4991370;28;20026;-62
2022/02/18 10:46:11;;;;;;;2.97;1.20;;;;;;;15.88;36.46;99817.19;4990944;28;20038;-61
2022/02/18 10:48:53;;;;;;;5.13;1.05;;;;;;;15.54;36.99;99761.72;4990854;28;20054;-62
2022/02/18 10:51:27;;;;;;;5.55;1.48;;;;;;;16.24;36.61;99817.81;4991071;28;20501;-62
2022/02/18 10:53:52;;;;;;;5.38;1.20;;;;;;;15.02;37.65;99778.03;4993570;28;20498;-62
2022/02/18 10:56:20;;;;;;;5.15;1.40;;;;;;;14.96;37.12;99757.84;4994746;28;20485;-61
2022/02/18 10:58:52;;;;;;;3.38;1.20;;;;;;;14.87;36.58;99754.03;4993299;28;20372;-62
2022/02/18 11:01:19;;;;;;;3.95;1.52;;;;;;;14.66;38.08;99760.16;4994673;28;20073;-62
2022/02/18 11:03:47;;;;;;;6.47;1.30;;;;;;;14.74;37.07;99833.13;4995140;28;20104;-62
2022/02/18 11:06:23;;;;;;;5.28;1.50;;;;;;;14.55;35.80;99757.31;4994957;28;20037;-62
2022/02/18 11:09:00;;;;;;;4.80;1.52;;;;;;;14.51;37.32;99766.03;4993684;28;20034;-61
2022/02/18 11:11:33;;;;;;;3.60;1.23;;;;;;;15.39;36.53;99811.16;4644587;28;9999940;-63
2022/02/18 11:14:00;;;;;;;2.35;1.10;;;;;;;15.20;37.07;99831.75;4991149;28;20038;-62
2022/02/18 11:16:28;;;;;;;6.10;2.40;;;;;;;15.60;36.36;99785.31;4991458;28;20034;-62
2022/02/18 11:18:54;;;;;;;7.03;1.63;;;;;;;15.42;37.12;99824.69;4991599;28;20037;-62
2022/02/18 11:21:21;;;;;;;4.18;1.90;;;;;;;16.19;36.11;99800.09;4991206;28;20187;-61
2022/02/18 11:23:48;;;;;;;6.30;2.35;;;;;;;16.44;35.51;99805.56;4989257;28;20061;-64
2022/02/18 11:26:16;;;;;;;5.88;2.40;;;;;;;16.03;35.79;99770.22;4990410;28;20515;-62